createdAt,value
2022-12-03T00:01:23.199Z,47.40
2022-12-03T00:03:51.045Z,41.10
2022-12-03T00:06:19.108Z,43.70
2022-12-03T00:08:46.964Z,46.40
2022-12-03T00:11:14.561Z,44.50
2022-12-03T00:13:42.282Z,44.10
2022-12-03T00:16:10.379Z,45.30
2022-12-03T00:18:38.168Z,36.10
2022-12-03T00:21:06.306Z,41.90
2022-12-03T00:23:40.161Z,48.70
2022-12-03T00:26:10.116Z,42.90
2022-12-03T00:28:38.072Z,42.40
2022-12-03T00:31:06.027Z,43.00
2022-12-03T00:33:33.818Z,43.80
2022-12-03T00:36:01.474Z,44.00
2022-12-03T00:38:29.222Z,32.80
2022-12-03T00:40:56.873Z,35.40
2022-12-03T00:43:24.634Z,36.50
2022-12-03T00:45:52.355Z,31.20
2022-12-03T00:48:20.084Z,47.00
2022-12-03T00:50:47.757Z,47.50
2022-12-03T00:53:15.362Z,37.50
2022-12-03T00:55:43.113Z,39.30
2022-12-03T00:58:10.923Z,35.70
2022-12-03T01:00:38.591Z,43.00
2022-12-03T01:03:06.329Z,38.80
2022-12-03T01:05:34.083Z,37.00
2022-12-03T01:08:01.835Z,40.40
2022-12-03T01:10:29.929Z,40.10
2022-12-03T01:12:57.587Z,45.30
2022-12-03T01:15:25.353Z,43.90
2022-12-03T01:17:54.279Z,45.40
2022-12-03T01:20:22.086Z,46.30
2022-12-03T01:22:49.807Z,39.30
2022-12-03T01:25:17.963Z,35.80
2022-12-03T01:27:45.676Z,32.40
2022-12-03T01:30:14.195Z,35.90
2022-12-03T01:32:41.946Z,35.30
2022-12-03T01:35:09.752Z,36.50
2022-12-03T01:37:37.456Z,36.10
2022-12-03T01:40:08.980Z,38.40
2022-12-03T01:42:41.170Z,41.90
2022-12-03T01:45:23.750Z,40.00
2022-12-03T01:47:51.623Z,44.50
2022-12-03T01:50:30.162Z,40.30
2022-12-03T01:53:01.734Z,41.10
2022-12-03T01:55:30.148Z,35.10
2022-12-03T01:58:01.925Z,43.10
2022-12-03T02:00:30.608Z,38.30
2022-12-03T02:03:08.406Z,37.90
2022-12-03T02:05:37.352Z,39.60
2022-12-03T02:08:34.969Z,39.80
2022-12-03T02:11:12.755Z,39.80
2022-12-03T02:13:40.637Z,47.10
2022-12-03T02:16:09.004Z,44.10
2022-12-03T02:18:36.743Z,44.90
2022-12-03T02:21:48.137Z,37.10
2022-12-03T02:24:31.586Z,38.20
2022-12-03T02:26:59.294Z,37.40
2022-12-03T02:29:27.249Z,44.00
2022-12-03T02:31:55.034Z,36.90
2022-12-03T02:34:50.540Z,34.30
2022-12-03T02:37:29.534Z,32.80
2022-12-03T02:40:04.334Z,41.50
2022-12-03T02:42:34.907Z,44.40
2022-12-03T02:45:16.902Z,41.50
2022-12-03T02:47:51.788Z,37.90
2022-12-03T02:50:28.450Z,41.20
2022-12-03T02:52:59.880Z,37.40
2022-12-03T02:55:35.057Z,36.50
2022-12-03T02:58:06.606Z,27.30
2022-12-03T03:00:36.038Z,35.30
2022-12-03T03:03:06.676Z,35.60
2022-12-03T03:05:39.123Z,38.80
2022-12-03T03:08:10.126Z,44.40
2022-12-03T03:10:40.432Z,41.60
2022-12-03T03:13:13.975Z,44.40
2022-12-03T03:15:42.501Z,38.70
2022-12-03T03:18:13.079Z,38.50
2022-12-03T03:20:41.577Z,33.60
2022-12-03T03:23:12.216Z,27.10
2022-12-03T03:26:03.737Z,28.70
2022-12-03T03:28:34.380Z,35.10
2022-12-03T03:31:04.595Z,36.50
2022-12-03T03:33:33.571Z,37.50
2022-12-03T03:36:02.112Z,37.50
2022-12-03T03:38:31.314Z,39.30
2022-12-03T03:41:03.438Z,40.80
2022-12-03T03:43:34.751Z,37.40
2022-12-03T03:46:06.551Z,33.80
2022-12-03T03:48:35.321Z,34.30
2022-12-03T03:51:08.991Z,33.50
2022-12-03T03:53:41.483Z,32.70
2022-12-03T03:56:10.629Z,44.10
2022-12-03T03:58:38.829Z,40.60
2022-12-03T04:01:08.461Z,40.90
2022-12-03T04:03:36.151Z,36.80
2022-12-03T04:06:04.071Z,33.00
2022-12-03T04:08:31.917Z,36.10
2022-12-03T04:11:18.220Z,41.10
2022-12-03T04:13:45.941Z,36.70
2022-12-03T04:16:13.713Z,39.10
2022-12-03T04:18:44.380Z,37.40
2022-12-03T04:21:38.325Z,35.40
2022-12-03T04:24:08.871Z,39.90
2022-12-03T04:26:56.743Z,37.40
2022-12-03T04:29:24.529Z,40.70
2022-12-03T04:32:10.844Z,32.40
2022-12-03T04:34:57.612Z,36.00
2022-12-03T04:37:25.430Z,36.30
2022-12-03T04:39:53.281Z,34.30
2022-12-03T04:42:21.097Z,43.30
2022-12-03T04:44:48.765Z,29.30
2022-12-03T04:47:19.555Z,34.80
2022-12-03T04:49:51.636Z,38.70
2022-12-03T04:52:21.121Z,42.20
2022-12-03T04:54:48.945Z,39.60
2022-12-03T04:57:16.874Z,38.40
2022-12-03T04:59:44.590Z,35.20
2022-12-03T05:02:12.332Z,33.80
2022-12-03T05:04:40.172Z,37.30
2022-12-03T05:07:07.898Z,38.80
2022-12-03T05:09:35.547Z,41.00
2022-12-03T05:12:04.022Z,32.50
2022-12-03T05:14:31.621Z,21.20
2022-12-03T05:16:59.380Z,45.00
2022-12-03T05:19:47.052Z,47.20
2022-12-03T05:22:14.783Z,42.70
2022-12-03T05:24:42.434Z,41.80
2022-12-03T05:27:10.356Z,40.20
2022-12-03T05:29:38.048Z,37.30
2022-12-03T05:32:05.913Z,49.10
2022-12-03T05:34:33.541Z,31.40
2022-12-03T05:37:01.236Z,48.40
2022-12-03T05:39:29.006Z,51.10
2022-12-03T05:42:16.125Z,44.90
2022-12-03T05:44:43.727Z,44.40
2022-12-03T05:47:11.520Z,39.70
2022-12-03T05:49:39.227Z,48.50
2022-12-03T05:52:07.026Z,40.30
2022-12-03T05:54:34.733Z,42.80
2022-12-03T05:57:02.395Z,40.00
2022-12-03T05:59:30.133Z,25.50
2022-12-03T06:01:58.330Z,39.20
2022-12-03T06:04:25.960Z,47.30
2022-12-03T06:06:53.581Z,49.90
2022-12-03T06:09:21.407Z,49.70
2022-12-03T06:11:53.489Z,42.00
2022-12-03T06:14:22.201Z,45.60
2022-12-03T06:16:49.871Z,44.40
2022-12-03T06:19:17.936Z,40.50
2022-12-03T06:21:45.811Z,47.30
2022-12-03T06:24:13.551Z,41.10
2022-12-03T06:26:41.191Z,42.90
2022-12-03T06:29:08.868Z,41.80
2022-12-03T06:31:36.751Z,47.70
2022-12-03T06:34:04.603Z,49.10
2022-12-03T06:36:32.394Z,48.60
2022-12-03T06:39:00.211Z,46.30
2022-12-03T06:41:27.906Z,49.90
2022-12-03T06:43:55.626Z,47.70
2022-12-03T06:46:23.392Z,46.10
2022-12-03T06:48:51.039Z,51.60
2022-12-03T06:51:18.751Z,45.50
2022-12-03T06:53:46.351Z,57.20
2022-12-03T06:56:14.212Z,56.00
2022-12-03T06:58:42.135Z,51.70
2022-12-03T07:01:09.944Z,52.50
2022-12-03T07:03:37.872Z,49.40
2022-12-03T07:06:05.858Z,52.50
2022-12-03T07:08:33.502Z,51.90
2022-12-03T07:11:01.120Z,49.30
2022-12-03T07:13:28.783Z,61.20
2022-12-03T07:15:56.501Z,59.90
2022-12-03T07:18:24.219Z,68.00
2022-12-03T07:20:51.858Z,64.90
2022-12-03T07:23:19.624Z,53.10
2022-12-03T07:25:47.331Z,50.40
2022-12-03T07:28:14.930Z,54.30
2022-12-03T07:30:42.702Z,54.40
2022-12-03T07:33:10.367Z,44.30
2022-12-03T07:35:38.091Z,57.10
2022-12-03T07:38:06.474Z,38.50
2022-12-03T07:40:34.164Z,53.60
2022-12-03T07:43:01.911Z,57.40
2022-12-03T07:45:29.725Z,64.60
2022-12-03T07:47:57.480Z,52.30
2022-12-03T07:50:28.357Z,50.90
2022-12-03T07:52:56.425Z,54.80
2022-12-03T07:55:25.248Z,57.90
2022-12-03T07:57:53.124Z,58.10
2022-12-03T08:00:21.728Z,58.20
2022-12-03T08:02:49.589Z,53.00
2022-12-03T08:05:17.477Z,59.20
2022-12-03T08:07:45.217Z,53.90
2022-12-03T08:10:13.084Z,55.40
2022-12-03T08:12:40.863Z,62.00
2022-12-03T08:15:17.529Z,58.90
2022-12-03T08:17:53.264Z,50.90
2022-12-03T08:20:24.700Z,51.80
2022-12-03T08:22:54.618Z,58.80
2022-12-03T08:25:33.599Z,55.20
2022-12-03T08:28:25.734Z,83.60
2022-12-03T08:31:05.750Z,67.50
2022-12-03T08:33:36.890Z,65.20
2022-12-03T08:36:22.882Z,54.90
2022-12-03T08:39:22.499Z,57.30
2022-12-03T08:42:17.113Z,44.10
2022-12-03T08:44:45.131Z,57.50
2022-12-03T08:47:20.423Z,46.10
2022-12-03T08:49:59.994Z,63.00
2022-12-03T08:52:33.776Z,64.50
2022-12-03T08:55:36.046Z,66.70
2022-12-03T08:58:23.510Z,57.80
2022-12-03T09:01:08.653Z,52.20
2022-12-03T09:04:06.684Z,37.50
2022-12-03T09:06:34.503Z,49.30
2022-12-03T09:09:06.533Z,55.40
2022-12-03T09:11:34.733Z,50.90
2022-12-03T09:14:02.480Z,59.00
2022-12-03T09:16:30.465Z,59.90
2022-12-03T09:18:58.313Z,71.40
2022-12-03T09:21:26.016Z,64.10
2022-12-03T09:23:53.655Z,51.00
2022-12-03T09:26:21.362Z,58.00
2022-12-03T09:28:49.037Z,66.00
2022-12-03T09:31:18.131Z,59.20
2022-12-03T09:33:45.871Z,55.00
2022-12-03T09:36:13.557Z,55.10
2022-12-03T09:38:46.117Z,57.00
2022-12-03T09:41:15.830Z,62.60
2022-12-03T09:44:03.476Z,66.10
2022-12-03T09:46:32.602Z,49.10
2022-12-03T09:49:02.485Z,52.50
2022-12-03T09:51:36.954Z,53.10
2022-12-03T09:54:07.577Z,46.00
2022-12-03T09:56:38.849Z,48.90
2022-12-03T09:59:14.519Z,49.70
2022-12-03T10:01:42.481Z,51.10
2022-12-03T10:04:11.056Z,55.00
2022-12-03T10:06:45.357Z,56.00
2022-12-03T10:09:22.232Z,55.90
2022-12-03T10:11:50.088Z,49.30
2022-12-03T10:14:20.265Z,56.90
2022-12-03T10:16:48.650Z,56.90
2022-12-03T10:19:23.850Z,72.40
2022-12-03T10:21:52.132Z,59.50
2022-12-03T10:24:30.559Z,60.00
2022-12-03T10:27:21.714Z,48.40
2022-12-03T10:30:01.639Z,61.80
2022-12-03T10:32:48.360Z,70.40
2022-12-03T10:35:26.889Z,79.60
2022-12-03T10:38:15.299Z,55.50
2022-12-03T10:40:43.042Z,62.60
2022-12-03T10:43:19.700Z,40.50
2022-12-03T10:46:13.222Z,60.30
2022-12-03T10:48:41.111Z,63.70
2022-12-03T10:51:22.306Z,74.20
2022-12-03T10:53:51.058Z,71.00
2022-12-03T10:56:26.725Z,75.40
2022-12-03T10:58:55.343Z,72.40
2022-12-03T11:01:26.350Z,73.80
2022-12-03T11:04:02.915Z,54.20
2022-12-03T11:06:34.864Z,74.00
2022-12-03T11:09:08.819Z,62.70
2022-12-03T11:11:37.127Z,63.30
2022-12-03T11:14:05.671Z,55.40
2022-12-03T11:16:39.337Z,53.90
2022-12-03T11:19:13.257Z,66.20
2022-12-03T11:22:06.189Z,63.10
2022-12-03T11:24:37.400Z,60.80
2022-12-03T11:27:06.977Z,55.60
2022-12-03T11:29:56.100Z,63.70
2022-12-03T11:32:39.709Z,55.20
2022-12-03T11:35:15.871Z,46.40
2022-12-03T11:37:43.613Z,64.20
2022-12-03T11:40:17.463Z,71.90
2022-12-03T11:42:48.353Z,66.20
2022-12-03T11:45:30.341Z,60.60
2022-12-03T11:47:58.056Z,63.30
2022-12-03T11:50:50.820Z,65.10
2022-12-03T11:53:28.860Z,64.70
2022-12-03T11:56:09.088Z,55.40
2022-12-03T11:58:42.466Z,64.80
2022-12-03T12:01:10.152Z,62.40
2022-12-03T12:03:50.085Z,73.90
2022-12-03T12:06:21.810Z,68.60
2022-12-03T12:08:52.409Z,56.90
2022-12-03T12:11:35.740Z,67.30
2022-12-03T12:14:12.136Z,48.50
2022-12-03T12:16:52.446Z,58.00
2022-12-03T12:19:52.664Z,49.80
2022-12-03T12:22:25.280Z,66.40
2022-12-03T12:25:00.946Z,53.70
2022-12-03T12:27:36.463Z,61.80
2022-12-03T12:30:19.724Z,54.70
2022-12-03T12:32:59.244Z,51.00
2022-12-03T12:35:32.924Z,55.80
2022-12-03T12:38:11.269Z,59.80
2022-12-03T12:40:44.961Z,58.40
2022-12-03T12:43:29.566Z,64.00
2022-12-03T12:46:38.578Z,61.50
2022-12-03T12:48:59.358Z,59.40
2022-12-03T12:51:27.522Z,59.80
2022-12-03T12:53:57.360Z,60.10
2022-12-03T12:56:27.413Z,41.30
2022-12-03T12:59:01.039Z,54.00
2022-12-03T13:01:32.129Z,52.40
2022-12-03T13:04:00.068Z,60.60
2022-12-03T13:06:31.901Z,53.40
2022-12-03T13:09:02.520Z,65.80
2022-12-03T13:11:35.121Z,61.80
2022-12-03T13:14:15.335Z,65.80
2022-12-03T13:16:44.411Z,59.70
2022-12-03T13:19:22.922Z,68.30
2022-12-03T13:21:54.322Z,48.40
2022-12-03T13:24:44.369Z,49.90
2022-12-03T13:27:18.145Z,63.00
2022-12-03T13:30:00.810Z,75.50
2022-12-03T13:32:33.947Z,72.20
2022-12-03T13:35:17.403Z,38.10
2022-12-03T13:37:45.179Z,58.70
2022-12-03T13:40:36.056Z,57.50
2022-12-03T13:43:21.811Z,58.70
2022-12-03T13:45:54.254Z,68.20
2022-12-03T13:48:27.597Z,73.00
2022-12-03T13:50:56.123Z,73.60
2022-12-03T13:53:38.527Z,77.60
2022-12-03T13:56:33.089Z,66.30
2022-12-03T13:59:01.602Z,65.30
2022-12-03T14:01:30.510Z,66.50
2022-12-03T14:03:58.293Z,69.60
2022-12-03T14:06:26.096Z,66.00
2022-12-03T14:08:54.509Z,73.90
2022-12-03T14:11:41.056Z,84.90
2022-12-03T14:14:09.188Z,74.50
2022-12-03T14:16:36.912Z,84.70
2022-12-03T14:19:04.969Z,76.50
2022-12-03T14:21:32.687Z,64.40
2022-12-03T14:24:00.398Z,70.50
2022-12-03T14:26:28.227Z,76.40
2022-12-03T14:28:55.928Z,52.00
2022-12-03T14:31:23.621Z,67.10
2022-12-03T14:33:51.336Z,72.00
2022-12-03T14:36:18.993Z,86.70
2022-12-03T14:38:46.693Z,83.60
2022-12-03T14:41:33.171Z,85.60
2022-12-03T14:44:00.870Z,77.10
2022-12-03T14:46:28.696Z,76.10
2022-12-03T14:48:56.485Z,73.40
2022-12-03T14:51:24.296Z,78.20
2022-12-03T14:53:51.953Z,74.00
2022-12-03T14:56:19.932Z,66.80
2022-12-03T14:58:47.580Z,80.00
2022-12-03T15:01:15.385Z,89.30
2022-12-03T15:03:43.176Z,81.10
2022-12-03T15:06:11.011Z,77.80
2022-12-03T15:08:38.682Z,71.00
2022-12-03T15:11:06.610Z,76.50
2022-12-03T15:13:34.396Z,72.80
2022-12-03T15:16:03.211Z,78.00
2022-12-03T15:18:31.184Z,76.40
2022-12-03T15:20:58.845Z,71.20
2022-12-03T15:23:26.544Z,72.10
2022-12-03T15:25:54.277Z,71.40
2022-12-03T15:28:23.224Z,76.50
2022-12-03T15:30:51.375Z,75.40
2022-12-03T15:33:19.657Z,79.80
2022-12-03T15:35:47.539Z,74.50
2022-12-03T15:38:15.569Z,64.90
2022-12-03T15:40:43.631Z,66.70
2022-12-03T15:43:11.533Z,82.10
2022-12-03T15:45:39.252Z,86.80
2022-12-03T15:48:06.948Z,76.80
2022-12-03T15:50:39.858Z,65.40
2022-12-03T15:53:07.889Z,59.50
2022-12-03T15:55:35.681Z,56.50
2022-12-03T15:58:03.414Z,51.20
2022-12-03T16:00:31.081Z,45.80
2022-12-03T16:02:58.819Z,63.90
2022-12-03T16:05:27.109Z,69.80
2022-12-03T16:07:54.914Z,63.40
2022-12-03T16:10:22.692Z,73.70
2022-12-03T16:12:50.565Z,60.90
2022-12-03T16:15:22.111Z,66.40
2022-12-03T16:17:52.961Z,71.00
2022-12-03T16:20:20.642Z,65.90
2022-12-03T16:22:48.387Z,69.40
2022-12-03T16:25:16.174Z,71.20
2022-12-03T16:27:43.926Z,68.50
2022-12-03T16:30:12.567Z,57.20
2022-12-03T16:32:40.201Z,69.00
2022-12-03T16:35:08.710Z,68.20
2022-12-03T16:37:36.366Z,59.30
2022-12-03T16:40:04.745Z,66.80
2022-12-03T16:42:32.407Z,72.80
2022-12-03T16:45:03.074Z,73.70
2022-12-03T16:47:34.280Z,63.20
2022-12-03T16:50:05.110Z,65.30
2022-12-03T16:52:32.743Z,60.20
2022-12-03T16:55:00.590Z,56.00
2022-12-03T16:57:33.389Z,62.20
2022-12-03T17:00:01.881Z,58.50
2022-12-03T17:02:29.707Z,73.10
2022-12-03T17:04:57.507Z,76.80
2022-12-03T17:07:25.250Z,63.70
2022-12-03T17:09:53.380Z,60.80
2022-12-03T17:12:21.242Z,63.50
2022-12-03T17:14:48.967Z,65.90
2022-12-03T17:17:16.717Z,47.70
2022-12-03T17:19:44.449Z,62.50
2022-12-03T17:22:12.170Z,62.70
2022-12-03T17:24:39.949Z,68.60
2022-12-03T17:27:08.115Z,67.30
2022-12-03T17:29:35.793Z,48.50
2022-12-03T17:32:03.666Z,56.10
2022-12-03T17:34:31.777Z,57.90
2022-12-03T17:36:59.497Z,69.30
2022-12-03T17:39:27.142Z,69.50
2022-12-03T17:41:54.814Z,55.40
2022-12-03T17:44:22.505Z,69.40
2022-12-03T17:46:50.898Z,56.70
2022-12-03T17:49:18.898Z,65.00
2022-12-03T17:51:46.591Z,54.30
2022-12-03T17:54:14.301Z,61.00
2022-12-03T17:56:43.649Z,66.10
2022-12-03T17:59:13.467Z,72.10
2022-12-03T18:01:41.714Z,63.10
2022-12-03T18:04:10.311Z,62.00
2022-12-03T18:06:38.264Z,65.00
2022-12-03T18:09:06.560Z,61.40
2022-12-03T18:11:34.295Z,57.80
2022-12-03T18:14:02.464Z,66.00
2022-12-03T18:16:30.304Z,55.50
2022-12-03T18:19:02.034Z,71.90
2022-12-03T18:21:35.013Z,71.90
2022-12-03T18:24:03.424Z,66.70
2022-12-03T18:26:31.188Z,65.10
2022-12-03T18:28:58.776Z,64.20
2022-12-03T18:31:26.694Z,65.30
2022-12-03T18:33:54.536Z,63.30
2022-12-03T18:36:29.904Z,57.80
2022-12-03T18:39:00.476Z,67.80
2022-12-03T18:41:28.973Z,63.40
2022-12-03T18:43:56.701Z,58.10
2022-12-03T18:46:51.954Z,64.80
2022-12-03T18:49:13.542Z,55.90
2022-12-03T18:51:41.151Z,51.70
2022-12-03T18:54:14.056Z,58.90
2022-12-03T18:56:41.691Z,59.80
2022-12-03T18:59:10.377Z,57.30
2022-12-03T19:01:38.189Z,52.40
2022-12-03T19:04:05.948Z,58.60
2022-12-03T19:06:33.648Z,59.40
2022-12-03T19:09:01.435Z,52.90
2022-12-03T19:11:29.221Z,63.10
2022-12-03T19:13:59.217Z,68.00
2022-12-03T19:16:27.046Z,62.30
2022-12-03T19:18:56.189Z,62.00
2022-12-03T19:21:23.983Z,68.80
2022-12-03T19:26:39.235Z,65.60
2022-12-03T19:29:07.031Z,63.10
2022-12-03T19:31:35.838Z,71.20
2022-12-03T19:34:04.195Z,65.20
2022-12-03T19:36:33.006Z,69.00
2022-12-03T19:39:01.569Z,69.80
2022-12-03T19:41:32.583Z,62.20
2022-12-03T19:44:00.656Z,64.20
2022-12-03T19:46:30.247Z,51.20
2022-12-03T19:48:58.924Z,51.80
2022-12-03T19:51:36.009Z,63.80
2022-12-03T19:54:06.573Z,67.40
2022-12-03T19:56:35.263Z,70.70
2022-12-03T19:59:05.052Z,59.70
2022-12-03T20:01:36.018Z,60.60
2022-12-03T20:04:04.201Z,58.00
2022-12-03T20:06:35.950Z,68.70
2022-12-03T20:09:12.036Z,66.00
2022-12-03T20:11:42.701Z,70.30
2022-12-03T20:14:15.245Z,68.10
2022-12-03T20:16:45.076Z,60.40
2022-12-03T20:19:17.280Z,66.70
2022-12-03T20:21:45.078Z,63.90
2022-12-03T20:24:16.580Z,56.20
2022-12-03T20:26:45.034Z,61.40
2022-12-03T20:29:13.051Z,58.50
2022-12-03T20:31:40.761Z,65.50
2022-12-03T20:34:10.564Z,68.40
2022-12-03T20:36:39.355Z,76.30
2022-12-03T20:39:08.344Z,62.00
2022-12-03T20:41:36.868Z,66.70
2022-12-03T20:44:07.383Z,76.50
2022-12-03T20:46:36.430Z,59.20
2022-12-03T20:49:04.810Z,70.50
2022-12-03T20:51:32.800Z,63.70
2022-12-03T20:54:01.998Z,66.30
2022-12-03T20:56:35.392Z,66.30
2022-12-03T20:59:13.389Z,64.00
2022-12-03T21:01:42.883Z,64.40
2022-12-03T21:04:18.022Z,70.00
2022-12-03T21:06:46.039Z,65.80
2022-12-03T21:09:14.368Z,65.80
2022-12-03T21:11:42.718Z,66.10
2022-12-03T21:14:11.324Z,69.30
2022-12-03T21:17:06.544Z,68.90
2022-12-03T21:19:28.055Z,59.90
2022-12-03T21:21:55.738Z,64.70
2022-12-03T21:24:23.404Z,65.60
2022-12-03T21:26:51.076Z,69.60
2022-12-03T21:29:18.744Z,58.50
2022-12-03T21:31:46.692Z,65.60
2022-12-03T21:34:14.451Z,62.60
2022-12-03T21:36:42.231Z,56.10
2022-12-03T21:39:09.896Z,57.60
2022-12-03T21:41:37.573Z,54.70
2022-12-03T21:44:05.476Z,62.40
2022-12-03T21:47:10.409Z,55.00
2022-12-03T21:49:22.684Z,52.90
2022-12-03T21:51:50.510Z,56.00
2022-12-03T21:54:18.508Z,64.90
2022-12-03T21:56:46.167Z,63.00
2022-12-03T21:59:14.714Z,63.90
2022-12-03T22:01:46.897Z,52.80
2022-12-03T22:04:15.056Z,59.50
2022-12-03T22:06:43.162Z,56.00
2022-12-03T22:09:10.776Z,49.40
2022-12-03T22:11:38.867Z,59.60
2022-12-03T22:14:08.184Z,54.40
2022-12-03T22:16:36.099Z,64.00
2022-12-03T22:19:04.347Z,56.60
2022-12-03T22:21:32.064Z,51.70
2022-12-03T22:23:59.794Z,52.00
2022-12-03T22:26:27.525Z,62.10
2022-12-03T22:28:55.262Z,64.10
2022-12-03T22:31:22.958Z,60.50
2022-12-03T22:33:50.761Z,57.30
2022-12-03T22:36:21.442Z,57.00
2022-12-03T22:38:51.058Z,65.90
2022-12-03T22:41:20.280Z,64.60
2022-12-03T22:43:48.701Z,55.30
2022-12-03T22:46:17.512Z,68.20
2022-12-03T22:48:47.047Z,72.30
2022-12-03T22:51:26.001Z,68.50
2022-12-03T22:54:00.070Z,63.30
2022-12-03T22:56:30.492Z,61.90
2022-12-03T22:58:58.346Z,52.60
2022-12-03T23:01:37.066Z,58.90
2022-12-03T23:04:06.523Z,54.90
2022-12-03T23:06:36.852Z,60.20
2022-12-03T23:09:06.949Z,56.60
2022-12-03T23:11:34.980Z,52.20
2022-12-03T23:14:03.699Z,55.80
2022-12-03T23:16:34.358Z,57.80
2022-12-03T23:19:03.507Z,54.00
2022-12-03T23:21:34.148Z,56.10
2022-12-03T23:24:05.354Z,47.40
2022-12-03T23:26:37.906Z,49.60
2022-12-03T23:29:08.518Z,64.00
2022-12-03T23:31:36.505Z,57.40
2022-12-03T23:34:04.938Z,56.40
2022-12-03T23:36:34.319Z,65.90
2022-12-03T23:39:02.097Z,60.70
2022-12-03T23:41:29.877Z,57.20
2022-12-03T23:43:57.815Z,65.30
2022-12-03T23:46:27.528Z,65.90
2022-12-03T23:48:55.637Z,73.10
2022-12-03T23:51:25.140Z,70.70
2022-12-03T23:53:55.428Z,66.40
2022-12-03T23:56:30.965Z,56.60
2022-12-03T23:58:59.010Z,57.00
